Time;durP1;ratioP1;P1;durP2;ratioP2;P2;SDS_P1;SDS_P2;PMS_P1;PMS_P2;Temp;Humidity;BMP_temperature;BMP_pressure;BME280_temperature;BME280_humidity;BME280_pressure;Samples;Min_cycle;Max_cycle;Signal;HPM_P1;HPM_P2
2023/01/11 00:00:23;;;;;;;;;;;23.80;99.60;;;;;;5059337;28;20599;-72
2023/01/11 00:03:00;;;;;;;;;;;23.80;99.90;;;;;;5057204;28;19920;-71
2023/01/11 00:05:27;;;;;;;;;;;23.80;99.70;;;;;;5059621;28;19916;-72
2023/01/11 00:07:53;;;;;;;;;;;23.90;99.90;;;;;;5061761;28;19912;-70
2023/01/11 00:10:20;;;;;;;;;;;23.90;99.50;;;;;;5072763;28;20309;-70
2023/01/11 00:12:47;;;;;;;;;;;23.90;99.20;;;;;;5069216;28;20276;-71
2023/01/11 00:15:14;;;;;;;;;;;23.80;99.30;;;;;;5079161;28;20331;-72
2023/01/11 00:17:41;;;;;;;;;;;23.80;99.50;;;;;;5085073;28;19976;-72
2023/01/11 00:20:09;;;;;;;;;;;23.90;99.40;;;;;;5075324;28;19947;-72
2023/01/11 00:22:36;;;;;;;;;;;23.90;99.00;;;;;;5060448;28;20335;-72
2023/01/11 00:25:03;;;;;;;;;;;23.90;99.30;;;;;;5053780;28;19919;-72
2023/01/11 00:27:29;;;;;;;;;;;24.00;98.80;;;;;;5052945;28;20357;-74
2023/01/11 00:29:56;;;;;;;;;;;23.90;98.40;;;;;;5078921;28;20011;-72
2023/01/11 00:32:23;;;;;;;;;;;24.00;98.80;;;;;;5058895;28;20362;-70
2023/01/11 00:34:49;;;;;;;;;;;24.00;98.00;;;;;;5074681;28;19973;-71
2023/01/11 00:37:16;;;;;;;;;;;23.90;98.00;;;;;;5053399;28;20596;-70
2023/01/11 00:39:42;;;;;;;;;;;24.00;97.90;;;;;;5054156;28;19913;-70
2023/01/11 00:47:59;;;;;;;;;;;24.10;97.80;;;;;;5052447;28;19923;-71
2023/01/11 00:50:27;;;;;;;;;;;24.00;97.70;;;;;;5053746;28;19921;-72
2023/01/11 00:52:54;;;;;;;;;;;24.00;97.40;;;;;;5061694;28;19920;-72
2023/01/11 00:55:20;;;;;;;;;;;24.00;97.40;;;;;;5083202;28;19920;-72
2023/01/11 00:57:47;;;;;;;;;;;24.00;97.20;;;;;;5052547;28;19913;-71
2023/01/11 01:00:14;;;;;;;;;;;24.00;97.40;;;;;;5055642;28;19919;-72
2023/01/11 01:02:40;;;;;;;;;;;24.10;97.60;;;;;;5057780;28;21134;-71
2023/01/11 01:05:07;;;;;;;;;;;24.00;97.00;;;;;;5050965;28;19913;-72
2023/01/11 01:07:34;;;;;;;;;;;24.00;97.20;;;;;;5075301;28;19916;-73
2023/01/11 01:10:01;;;;;;;;;;;23.90;97.30;;;;;;5053224;28;19948;-71
2023/01/11 01:15:12;;;;;;;;;;;24.00;97.60;;;;;;5069021;28;19997;-73
2023/01/11 01:17:39;;;;;;;;;;;24.20;97.40;;;;;;5073695;28;19918;-72
2023/01/11 01:20:06;;;;;;;;;;;24.30;97.20;;;;;;5077205;28;20016;-72
2023/01/11 01:22:32;;;;;;;;;;;24.40;96.90;;;;;;5060236;28;19982;-71
2023/01/11 01:24:59;;;;;;;;;;;24.40;96.50;;;;;;5056988;28;19913;-72
2023/01/11 01:27:25;;;;;;;;;;;24.30;96.70;;;;;;5052932;28;20065;-72
2023/01/11 01:29:52;;;;;;;;;;;24.50;96.80;;;;;;5052315;28;19913;-72
2023/01/11 01:32:19;;;;;;;;;;;24.60;96.70;;;;;;5053141;28;20255;-72
2023/01/11 01:34:45;;;;;;;;;;;24.50;96.60;;;;;;5060545;28;19928;-74
2023/01/11 01:37:14;;;;;;;;;;;24.50;96.60;;;;;;5068220;28;20365;-74
2023/01/11 01:39:41;;;;;;;;;;;24.60;96.60;;;;;;5062637;28;20257;-74
2023/01/11 01:42:12;;;;;;;;;;;24.60;96.70;;;;;;5068195;28;19917;-73
2023/01/11 01:44:50;;;;;;;;;;;24.80;96.40;;;;;;5073881;28;19915;-72
2023/01/11 01:47:19;;;;;;;;;;;24.90;96.20;;;;;;5061313;28;19982;-70
2023/01/11 01:49:45;;;;;;;;;;;25.10;96.10;;;;;;5065174;28;19912;-75
2023/01/11 01:52:12;;;;;;;;;;;25.30;95.30;;;;;;5056650;28;19943;-74
2023/01/11 01:54:43;;;;;;;;;;;25.50;94.70;;;;;;5060882;28;19920;-74
2023/01/11 01:57:13;;;;;;;;;;;25.70;94.80;;;;;;5094081;28;19913;-73
2023/01/11 01:59:40;;;;;;;;;;;25.80;94.80;;;;;;5094957;28;19914;-73
2023/01/11 02:02:07;;;;;;;;;;;25.80;94.40;;;;;;5094653;28;19944;-73
2023/01/11 02:04:39;;;;;;;;;;;25.50;94.60;;;;;;5094440;28;20346;-73
2023/01/11 02:07:11;;;;;;;;;;;25.50;95.10;;;;;;5094345;28;19932;-73
2023/01/11 02:09:50;;;;;;;;;;;25.70;94.80;;;;;;5095779;28;19995;-74
2023/01/11 02:12:17;;;;;;;;;;;25.90;94.10;;;;;;5095659;28;20368;-73
2023/01/11 02:14:46;;;;;;;;;;;26.00;94.40;;;;;;5095659;28;19923;-74
2023/01/11 02:17:13;;;;;;;;;;;25.90;94.50;;;;;;5095614;28;20387;-73
2023/01/11 02:19:39;;;;;;;;;;;26.00;95.60;;;;;;5095507;28;19909;-74
2023/01/11 02:22:13;;;;;;;;;;;26.00;96.30;;;;;;5095446;28;19935;-73
2023/01/11 02:25:06;;;;;;;;;;;26.00;96.20;;;;;;5095442;28;19908;-71
2023/01/11 02:27:50;;;;;;;;;;;26.00;96.20;;;;;;5094813;28;20311;-71
2023/01/11 02:30:20;;;;;;;;;;;25.80;95.80;;;;;;5095593;28;19912;-73
2023/01/11 02:33:05;;;;;;;;;;;25.70;96.90;;;;;;5095344;28;19908;-74
2023/01/11 02:35:32;;;;;;;;;;;25.60;97.10;;;;;;5095114;28;20228;-73
2023/01/11 02:38:03;;;;;;;;;;;25.50;97.30;;;;;;5093869;28;19920;-72
2023/01/11 02:40:37;;;;;;;;;;;25.50;97.40;;;;;;5095305;28;19908;-73
2023/01/11 02:46:10;;;;;;;;;;;25.80;96.70;;;;;;5095126;28;19963;-73
2023/01/11 02:48:43;;;;;;;;;;;25.90;96.60;;;;;;5089197;28;19912;-73
2023/01/11 02:51:17;;;;;;;;;;;26.10;96.50;;;;;;5094866;28;20294;-71
2023/01/11 02:54:03;;;;;;;;;;;26.30;96.30;;;;;;5094745;28;20387;-73
2023/01/11 02:56:31;;;;;;;;;;;26.20;96.10;;;;;;5094716;28;19955;-72
2023/01/11 02:58:59;;;;;;;;;;;26.30;96.80;;;;;;5094642;28;19915;-71
2023/01/11 03:01:26;;;;;;;;;;;26.60;95.90;;;;;;5094667;28;19978;-74
2023/01/11 03:03:53;;;;;;;;;;;26.80;94.80;;;;;;5094951;28;19908;-71
2023/01/11 03:06:21;;;;;;;;;;;27.20;94.50;;;;;;5093394;28;19909;-71
2023/01/11 03:08:57;;;;;;;;;;;27.40;94.40;;;;;;5094918;28;19908;-73
2023/01/11 03:14:24;;;;;;;;;;;27.90;93.20;;;;;;5105295;28;19995;-73
2023/01/11 03:17:05;;;;;;;;;;;28.30;92.50;;;;;;5110715;28;19914;-72
2023/01/11 03:19:42;;;;;;;;;;;28.40;92.50;;;;;;5076518;28;19944;-70
2023/01/11 03:22:27;;;;;;;;;;;28.80;91.00;;;;;;5056461;28;19912;-72
2023/01/11 03:25:08;;;;;;;;;;;28.50;91.30;;;;;;5060060;28;20368;-71
2023/01/11 03:27:46;;;;;;;;;;;28.40;91.60;;;;;;5081813;28;19966;-70
2023/01/11 03:30:13;;;;;;;;;;;28.20;91.50;;;;;;5070197;28;19999;-73
2023/01/11 03:32:58;;;;;;;;;;;28.40;91.80;;;;;;5076387;28;19913;-72
2023/01/11 03:35:24;;;;;;;;;;;28.90;90.70;;;;;;5052422;28;19928;-71
2023/01/11 03:37:56;;;;;;;;;;;29.30;90.00;;;;;;5054410;28;19928;-73
2023/01/11 03:40:23;;;;;;;;;;;29.60;89.70;;;;;;5066624;28;19913;-72
2023/01/11 03:43:10;;;;;;;;;;;30.20;88.40;;;;;;5054320;28;19917;-72
2023/01/11 03:46:06;;;;;;;;;;;30.60;85.60;;;;;;5067295;28;19997;-73
2023/01/11 03:48:36;;;;;;;;;;;30.10;86.20;;;;;;5067212;28;19973;-70
2023/01/11 03:51:05;;;;;;;;;;;29.90;87.70;;;;;;5055341;28;19917;-70
2023/01/11 03:53:34;;;;;;;;;;;29.30;87.80;;;;;;5070896;28;19956;-70
2023/01/11 03:56:02;;;;;;;;;;;29.30;88.40;;;;;;5060448;28;19951;-71
2023/01/11 03:58:29;;;;;;;;;;;29.90;87.30;;;;;;5063276;28;20483;-73
2023/01/11 04:00:56;;;;;;;;;;;29.80;86.20;;;;;;5057057;28;19912;-73
2023/01/11 04:03:23;;;;;;;;;;;29.40;86.80;;;;;;5077252;28;19912;-73
2023/01/11 04:05:52;;;;;;;;;;;29.30;86.70;;;;;;5063052;28;19923;-72
2023/01/11 04:08:18;;;;;;;;;;;29.50;87.40;;;;;;5068719;28;20301;-74
2023/01/11 04:10:45;;;;;;;;;;;29.40;86.50;;;;;;5064716;28;19983;-73
2023/01/11 04:13:12;;;;;;;;;;;29.40;87.10;;;;;;5058240;28;19959;-73
2023/01/11 04:15:38;;;;;;;;;;;29.60;86.40;;;;;;5081496;28;19962;-73
2023/01/11 04:18:05;;;;;;;;;;;29.80;86.90;;;;;;5089015;28;20284;-73
2023/01/11 04:20:36;;;;;;;;;;;30.10;86.60;;;;;;5083251;28;19961;-72
2023/01/11 04:23:03;;;;;;;;;;;30.00;84.30;;;;;;5076191;28;19954;-74
2023/01/11 04:25:30;;;;;;;;;;;29.10;87.10;;;;;;5088871;28;19909;-73
2023/01/11 04:27:57;;;;;;;;;;;29.10;86.70;;;;;;5077596;28;20345;-73
2023/01/11 04:30:23;;;;;;;;;;;29.10;87.80;;;;;;5076395;28;19994;-72
2023/01/11 04:32:50;;;;;;;;;;;29.90;86.80;;;;;;5052821;28;19991;-73
2023/01/11 04:35:17;;;;;;;;;;;31.20;82.90;;;;;;5052696;28;19917;-73
2023/01/11 04:37:44;;;;;;;;;;;31.90;81.00;;;;;;5052556;28;19920;-73
2023/01/11 04:40:11;;;;;;;;;;;33.20;78.50;;;;;;5052763;28;20121;-73
2023/01/11 04:42:37;;;;;;;;;;;34.00;77.00;;;;;;5080315;28;19912;-73
2023/01/11 04:45:04;;;;;;;;;;;34.20;77.50;;;;;;5070991;28;19964;-73
2023/01/11 04:47:31;;;;;;;;;;;33.80;75.70;;;;;;5061089;28;19923;-71
2023/01/11 04:49:58;;;;;;;;;;;33.50;76.90;;;;;;5077585;28;19966;-71
2023/01/11 04:52:25;;;;;;;;;;;34.20;74.80;;;;;;5053985;28;20063;-69
2023/01/11 04:54:52;;;;;;;;;;;35.20;72.10;;;;;;5057992;28;19942;-70
2023/01/11 04:57:19;;;;;;;;;;;34.30;73.00;;;;;;5058637;28;19913;-71
2023/01/11 04:59:46;;;;;;;;;;;34.60;73.00;;;;;;5053674;28;19917;-70
2023/01/11 05:02:13;;;;;;;;;;;35.90;72.40;;;;;;5051463;28;19955;-71
2023/01/11 05:04:39;;;;;;;;;;;35.90;70.00;;;;;;5075317;28;20346;-71
2023/01/11 05:07:07;;;;;;;;;;;36.50;69.20;;;;;;5063529;28;20281;-70
2023/01/11 05:09:34;;;;;;;;;;;35.70;69.60;;;;;;5068167;28;19913;-72
2023/01/11 05:12:00;;;;;;;;;;;35.60;70.60;;;;;;5052952;28;20277;-71
2023/01/11 05:14:27;;;;;;;;;;;36.50;68.50;;;;;;5067841;28;20396;-71
2023/01/11 05:16:54;;;;;;;;;;;36.70;68.10;;;;;;5079801;28;20369;-70
2023/01/11 05:19:20;;;;;;;;;;;36.60;66.60;;;;;;5061151;28;20865;-71
2023/01/11 05:21:47;;;;;;;;;;;35.80;69.40;;;;;;5064794;28;19923;-70
2023/01/11 05:24:15;;;;;;;;;;;35.60;70.10;;;;;;5056152;28;20007;-69
2023/01/11 05:26:44;;;;;;;;;;;36.40;67.10;;;;;;5056408;28;19969;-70
2023/01/11 05:29:12;;;;;;;;;;;35.40;70.60;;;;;;5077596;28;19918;-72
2023/01/11 05:31:39;;;;;;;;;;;36.10;68.00;;;;;;5085528;28;19923;-73
2023/01/11 05:34:06;;;;;;;;;;;36.00;67.70;;;;;;5089039;28;19940;-71
2023/01/11 05:36:33;;;;;;;;;;;35.60;68.50;;;;;;5079697;28;19920;-73
2023/01/11 05:39:00;;;;;;;;;;;34.80;70.60;;;;;;5057872;28;19971;-72
2023/01/11 05:41:27;;;;;;;;;;;35.10;71.10;;;;;;5089606;28;20414;-70
2023/01/11 05:46:39;;;;;;;;;;;37.90;66.60;;;;;;5064222;28;19924;-73
2023/01/11 05:49:06;;;;;;;;;;;38.20;64.60;;;;;;5055188;28;19967;-72
2023/01/11 05:51:34;;;;;;;;;;;37.10;66.20;;;;;;5086174;28;19917;-71
2023/01/11 05:54:01;;;;;;;;;;;36.40;68.90;;;;;;5066141;28;19912;-72
2023/01/11 05:56:28;;;;;;;;;;;36.00;68.50;;;;;;5075421;28;19962;-72
2023/01/11 05:58:55;;;;;;;;;;;35.20;69.30;;;;;;5062048;28;19990;-72
2023/01/11 06:01:22;;;;;;;;;;;34.80;70.00;;;;;;5057386;28;20349;-72
2023/01/11 06:03:49;;;;;;;;;;;34.70;70.50;;;;;;5061499;28;19916;-70
2023/01/11 06:06:16;;;;;;;;;;;34.60;71.90;;;;;;5082791;28;20715;-70
2023/01/11 06:08:43;;;;;;;;;;;34.80;72.00;;;;;;5065992;28;20357;-69
2023/01/11 06:11:10;;;;;;;;;;;34.30;73.30;;;;;;5070026;28;19970;-73
2023/01/11 06:13:36;;;;;;;;;;;34.00;73.00;;;;;;5079090;28;20006;-70
2023/01/11 06:16:07;;;;;;;;;;;33.80;74.00;;;;;;5060578;28;19928;-73
2023/01/11 06:18:35;;;;;;;;;;;33.00;74.70;;;;;;5076621;28;19908;-72
2023/01/11 06:21:02;;;;;;;;;;;32.80;77.10;;;;;;5067641;28;19982;-72
2023/01/11 06:23:30;;;;;;;;;;;32.70;76.90;;;;;;5072320;28;19912;-72
2023/01/11 06:25:59;;;;;;;;;;;32.10;77.40;;;;;;5073029;28;19913;-70
2023/01/11 06:28:26;;;;;;;;;;;31.50;77.80;;;;;;5062705;28;20011;-73
2023/01/11 06:30:53;;;;;;;;;;;31.20;79.60;;;;;;5055938;28;19909;-73
2023/01/11 06:33:21;;;;;;;;;;;31.20;79.70;;;;;;5055289;28;20427;-71
2023/01/11 06:35:47;;;;;;;;;;;31.10;79.90;;;;;;5055100;28;19917;-73
2023/01/11 06:38:15;;;;;;;;;;;30.90;80.00;;;;;;5057695;28;19921;-73
2023/01/11 06:40:41;;;;;;;;;;;30.80;80.30;;;;;;5066082;28;19951;-70
2023/01/11 06:43:09;;;;;;;;;;;30.80;80.00;;;;;;5074108;28;19917;-70
2023/01/11 06:45:39;;;;;;;;;;;30.70;79.70;;;;;;5075020;28;20365;-74
2023/01/11 06:48:06;;;;;;;;;;;30.60;80.20;;;;;;5074891;28;19917;-74
2023/01/11 06:50:33;;;;;;;;;;;30.50;80.80;;;;;;5068101;28;19912;-72
2023/01/11 06:53:03;;;;;;;;;;;30.40;81.40;;;;;;5067548;28;19909;-69
2023/01/11 06:55:29;;;;;;;;;;;30.20;81.60;;;;;;5090873;28;20428;-74
2023/01/11 06:57:56;;;;;;;;;;;30.10;81.70;;;;;;5078965;28;19909;-73
2023/01/11 07:00:23;;;;;;;;;;;30.10;82.10;;;;;;5085790;28;19908;-74
2023/01/11 07:02:50;;;;;;;;;;;29.90;83.30;;;;;;5091968;28;19908;-71
2023/01/11 07:05:16;;;;;;;;;;;29.90;82.70;;;;;;5098684;28;19909;-70
2023/01/11 07:07:43;;;;;;;;;;;29.90;83.90;;;;;;5098643;28;19931;-69
2023/01/11 07:10:11;;;;;;;;;;;29.80;83.30;;;;;;5080942;28;19908;-73
2023/01/11 07:12:38;;;;;;;;;;;29.10;85.70;;;;;;5083956;28;19915;-70
2023/01/11 07:15:06;;;;;;;;;;;29.20;87.10;;;;;;5088056;28;19923;-71
2023/01/11 07:17:33;;;;;;;;;;;29.00;88.30;;;;;;5076716;28;19908;-70
2023/01/11 07:20:00;;;;;;;;;;;29.20;86.80;;;;;;5088625;28;19955;-71
2023/01/11 07:22:27;;;;;;;;;;;29.40;86.70;;;;;;5082698;28;19912;-74
2023/01/11 07:24:53;;;;;;;;;;;29.60;85.10;;;;;;5081049;28;19924;-71
2023/01/11 07:27:20;;;;;;;;;;;29.10;86.40;;;;;;5089651;28;19909;-70
2023/01/11 07:29:47;;;;;;;;;;;28.50;87.70;;;;;;5076561;28;19908;-74
2023/01/11 07:32:14;;;;;;;;;;;28.00;89.10;;;;;;5086520;28;19935;-74
2023/01/11 07:34:40;;;;;;;;;;;27.60;90.20;;;;;;5073195;28;19916;-72
2023/01/11 07:37:12;;;;;;;;;;;27.00;90.90;;;;;;5087503;28;19920;-70
2023/01/11 07:39:39;;;;;;;;;;;26.90;91.10;;;;;;5076626;28;19909;-74
2023/01/11 07:44:50;;;;;;;;;;;26.80;91.60;;;;;;5079508;28;19915;-70
2023/01/11 07:47:16;;;;;;;;;;;26.60;91.70;;;;;;5088432;28;19960;-70
2023/01/11 07:49:43;;;;;;;;;;;26.80;91.80;;;;;;5073748;28;19927;-70
2023/01/11 07:52:10;;;;;;;;;;;27.00;91.50;;;;;;5073391;28;19908;-71
2023/01/11 07:54:36;;;;;;;;;;;27.20;91.30;;;;;;5073364;28;19923;-71
2023/01/11 07:57:03;;;;;;;;;;;27.10;91.10;;;;;;5073376;28;19908;-70
2023/01/11 07:59:29;;;;;;;;;;;26.80;91.60;;;;;;5073390;28;19970;-71
2023/01/11 08:01:56;;;;;;;;;;;26.50;92.30;;;;;;5073505;28;19908;-74
2023/01/11 08:04:23;;;;;;;;;;;26.40;92.30;;;;;;5073325;28;20007;-73
2023/01/11 08:06:49;;;;;;;;;;;26.20;91.90;;;;;;5073218;28;19948;-72
2023/01/11 08:09:16;;;;;;;;;;;25.70;92.20;;;;;;5060097;28;19917;-70
2023/01/11 08:14:39;;;;;;;;;;;25.20;93.30;;;;;;5053233;28;19963;-74
2023/01/11 08:17:07;;;;;;;;;;;25.10;93.40;;;;;;5053208;28;19915;-71
2023/01/11 08:19:34;;;;;;;;;;;24.90;93.60;;;;;;5053046;28;20377;-73
2023/01/11 08:22:00;;;;;;;;;;;24.80;93.90;;;;;;5052997;28;20350;-71
2023/01/11 08:24:27;;;;;;;;;;;24.80;93.90;;;;;;5053025;28;20353;-70
2023/01/11 08:26:54;;;;;;;;;;;24.80;94.10;;;;;;5052761;28;19909;-73
2023/01/11 08:29:21;;;;;;;;;;;24.80;94.00;;;;;;5053321;28;19916;-72
2023/01/11 08:31:48;;;;;;;;;;;24.60;94.30;;;;;;5071259;28;20357;-70
2023/01/11 08:34:15;;;;;;;;;;;24.70;94.30;;;;;;5072853;28;20054;-70
2023/01/11 08:36:41;;;;;;;;;;;24.80;94.50;;;;;;5072605;28;19924;-70
2023/01/11 08:39:08;;;;;;;;;;;24.80;94.30;;;;;;5073077;28;19909;-72
2023/01/11 08:41:37;;;;;;;;;;;24.90;94.40;;;;;;5072757;28;20003;-72
2023/01/11 08:44:04;;;;;;;;;;;24.90;94.00;;;;;;5072652;28;20397;-74
2023/01/11 08:46:32;;;;;;;;;;;24.70;94.40;;;;;;5062072;28;19979;-73
2023/01/11 08:49:02;;;;;;;;;;;24.60;94.90;;;;;;5068713;28;19909;-73
2023/01/11 08:51:28;;;;;;;;;;;24.60;95.10;;;;;;5056570;28;19919;-74
2023/01/11 08:53:55;;;;;;;;;;;24.50;95.20;;;;;;5076505;28;19908;-70
2023/01/11 08:56:22;;;;;;;;;;;24.50;95.60;;;;;;5072806;28;19920;-70
2023/01/11 08:58:48;;;;;;;;;;;24.40;95.90;;;;;;5072930;28;19917;-70
2023/01/11 09:01:15;;;;;;;;;;;24.30;96.00;;;;;;5072726;28;19997;-73
2023/01/11 09:03:42;;;;;;;;;;;24.20;96.60;;;;;;5073079;28;20375;-70
2023/01/11 09:06:08;;;;;;;;;;;24.30;96.60;;;;;;5072819;28;19908;-70
2023/01/11 09:08:35;;;;;;;;;;;24.00;96.90;;;;;;5072795;28;20376;-70
2023/01/11 09:11:52;;;;;;;;;;;23.90;97.40;;;;;;5072782;28;19962;-70
2023/01/11 09:13:48;;;;;;;;;;;23.80;97.70;;;;;;5072519;28;19908;-73
2023/01/11 09:16:14;;;;;;;;;;;23.80;98.10;;;;;;5072262;28;19923;-70
2023/01/11 09:18:41;;;;;;;;;;;23.70;98.50;;;;;;5072679;28;20289;-71
2023/01/11 09:21:08;;;;;;;;;;;23.70;98.60;;;;;;5072594;28;19908;-70
2023/01/11 09:23:35;;;;;;;;;;;23.70;98.70;;;;;;5078122;28;19915;-74
2023/01/11 09:26:02;;;;;;;;;;;23.80;98.50;;;;;;5079720;28;19909;-70
2023/01/11 09:28:29;;;;;;;;;;;23.80;98.90;;;;;;5078939;28;19912;-70
2023/01/11 09:30:55;;;;;;;;;;;23.80;99.10;;;;;;5073666;28;19930;-71
2023/01/11 09:33:22;;;;;;;;;;;23.80;98.90;;;;;;5073958;28;19999;-74
2023/01/11 09:35:51;;;;;;;;;;;23.80;98.80;;;;;;5073294;28;20047;-73
2023/01/11 09:38:17;;;;;;;;;;;23.70;99.00;;;;;;5072505;28;19999;-69
2023/01/11 09:40:51;;;;;;;;;;;23.60;99.20;;;;;;5072664;28;19908;-69
2023/01/11 09:43:21;;;;;;;;;;;23.50;99.30;;;;;;5072397;28;19945;-73
2023/01/11 09:45:50;;;;;;;;;;;23.40;99.60;;;;;;5072275;28;19909;-70
2023/01/11 09:48:27;;;;;;;;;;;23.30;99.80;;;;;;5072308;28;19915;-70
2023/01/11 09:50:54;;;;;;;;;;;23.30;99.90;;;;;;5072236;28;20348;-73
2023/01/11 09:53:30;;;;;;;;;;;23.40;99.90;;;;;;5072176;28;19908;-70
2023/01/11 09:56:00;;;;;;;;;;;23.40;99.90;;;;;;5071944;28;19916;-70
2023/01/11 09:58:27;;;;;;;;;;;23.40;99.90;;;;;;5072750;28;19919;-72
2023/01/11 10:00:59;;;;;;;;;;;23.40;99.90;;;;;;5075626;28;19908;-72
2023/01/11 10:03:31;;;;;;;;;;;23.30;99.90;;;;;;5075752;28;20003;-70
2023/01/11 10:06:09;;;;;;;;;;;23.30;99.90;;;;;;5075531;28;19955;-71
2023/01/11 10:08:49;;;;;;;;;;;23.50;99.90;;;;;;5069474;28;19943;-70
2023/01/11 10:11:29;;;;;;;;;;;23.50;99.90;;;;;;5065104;28;19912;-70
2023/01/11 10:14:14;;;;;;;;;;;23.40;99.90;;;;;;5065038;28;20003;-70
2023/01/11 10:16:50;;;;;;;;;;;23.40;99.90;;;;;;5079679;28;19920;-71
2023/01/11 10:19:39;;;;;;;;;;;23.30;99.90;;;;;;5054777;28;19919;-70
2023/01/11 10:22:32;;;;;;;;;;;23.40;99.90;;;;;;5055320;28;20011;-72
2023/01/11 10:25:23;;;;;;;;;;;23.50;99.90;;;;;;5074928;28;19908;-73
2023/01/11 10:27:56;;;;;;;;;;;23.40;99.90;;;;;;5075184;28;19909;-74
2023/01/11 10:38:58;;;;;;;;;;;23.20;99.90;;;;;;5075316;28;20316;-71
2023/01/11 10:41:40;;;;;;;;;;;23.10;99.90;;;;;;5075602;28;19912;-72
2023/01/11 10:44:09;;;;;;;;;;;23.10;99.90;;;;;;5075126;28;19909;-69
2023/01/11 10:46:43;;;;;;;;;;;23.10;99.90;;;;;;5075062;28;19996;-70
2023/01/11 10:49:19;;;;;;;;;;;22.90;99.90;;;;;;5074938;28;19912;-69
2023/01/11 10:51:47;;;;;;;;;;;22.90;99.90;;;;;;5075018;28;19908;-71
2023/01/11 10:54:15;;;;;;;;;;;22.80;99.90;;;;;;5075117;28;19916;-70
2023/01/11 10:56:57;;;;;;;;;;;22.80;99.90;;;;;;5074833;28;19917;-70
2023/01/11 10:59:30;;;;;;;;;;;22.70;99.90;;;;;;5070007;28;19936;-71
2023/01/11 11:02:20;;;;;;;;;;;22.70;99.90;;;;;;5061185;28;19940;-69
2023/01/11 11:04:55;;;;;;;;;;;22.60;99.90;;;;;;5057202;28;19919;-69
2023/01/11 11:07:31;;;;;;;;;;;22.60;99.90;;;;;;5066121;28;20351;-70
2023/01/11 11:10:20;;;;;;;;;;;22.60;99.90;;;;;;5057290;28;19919;-73
2023/01/11 11:13:05;;;;;;;;;;;22.60;99.90;;;;;;5075051;28;20266;-71
2023/01/11 11:15:31;;;;;;;;;;;22.60;99.90;;;;;;5054091;28;20401;-70
2023/01/11 11:17:58;;;;;;;;;;;22.60;99.90;;;;;;5062723;28;19916;-73
2023/01/11 11:20:29;;;;;;;;;;;22.60;99.90;;;;;;5053481;28;19916;-71
2023/01/11 11:22:56;;;;;;;;;;;22.60;99.90;;;;;;5057850;28;19909;-73
2023/01/11 11:25:36;;;;;;;;;;;22.50;99.90;;;;;;5061309;28;19912;-72
2023/01/11 11:28:23;;;;;;;;;;;22.50;99.90;;;;;;5060636;28;19979;-72
2023/01/11 11:30:52;;;;;;;;;;;22.50;99.90;;;;;;5060494;28;20349;-71
2023/01/11 11:33:28;;;;;;;;;;;22.50;99.90;;;;;;5078325;28;20250;-70
2023/01/11 11:35:56;;;;;;;;;;;22.50;99.90;;;;;;5064013;28;19920;-72
2023/01/11 11:38:24;;;;;;;;;;;22.50;99.90;;;;;;5057063;28;19925;-73
2023/01/11 11:40:58;;;;;;;;;;;22.50;99.90;;;;;;5056804;28;20376;-70
2023/01/11 11:43:25;;;;;;;;;;;22.50;99.90;;;;;;5060918;28;19975;-72
2023/01/11 11:45:52;;;;;;;;;;;22.50;99.90;;;;;;5060550;28;19921;-71
2023/01/11 11:48:18;;;;;;;;;;;22.50;99.90;;;;;;5069379;28;19990;-73
2023/01/11 11:50:46;;;;;;;;;;;22.40;99.90;;;;;;5065119;28;20011;-72
2023/01/11 11:53:20;;;;;;;;;;;22.40;99.90;;;;;;5056965;28;20280;-73
2023/01/11 11:55:47;;;;;;;;;;;22.40;99.90;;;;;;5054599;28;19928;-70
2023/01/11 11:58:17;;;;;;;;;;;22.50;99.90;;;;;;5054847;28;19916;-72
2023/01/11 12:00:46;;;;;;;;;;;22.50;99.90;;;;;;5081911;28;19908;-72
2023/01/11 12:03:18;;;;;;;;;;;22.50;99.90;;;;;;5057507;28;19923;-72
2023/01/11 12:05:48;;;;;;;;;;;22.60;99.90;;;;;;5061900;28;19915;-71
2023/01/11 12:08:16;;;;;;;;;;;22.60;99.90;;;;;;5070892;28;20360;-72
2023/01/11 12:10:47;;;;;;;;;;;22.60;99.90;;;;;;5053647;28;19912;-72
2023/01/11 12:13:31;;;;;;;;;;;22.60;99.90;;;;;;5055426;28;20296;-72
2023/01/11 12:15:59;;;;;;;;;;;22.70;99.90;;;;;;5055994;28;20003;-72
2023/01/11 12:18:27;;;;;;;;;;;22.70;99.90;;;;;;5075937;28;19921;-72
2023/01/11 12:20:54;;;;;;;;;;;22.70;99.90;;;;;;5056195;28;19920;-72
2023/01/11 12:23:24;;;;;;;;;;;22.70;99.90;;;;;;5060797;28;19913;-71
2023/01/11 12:26:02;;;;;;;;;;;22.70;99.90;;;;;;5081170;28;19908;-71
2023/01/11 12:28:48;;;;;;;;;;;22.80;99.90;;;;;;5070711;28;19913;-70
2023/01/11 12:31:24;;;;;;;;;;;22.80;99.90;;;;;;5063283;28;19917;-69
2023/01/11 12:34:08;;;;;;;;;;;22.80;99.90;;;;;;5073293;28;20277;-70
2023/01/11 12:36:50;;;;;;;;;;;22.70;99.90;;;;;;5052776;28;19921;-69
2023/01/11 12:39:17;;;;;;;;;;;22.80;99.90;;;;;;5052968;28;19916;-72
2023/01/11 12:41:52;;;;;;;;;;;22.80;99.90;;;;;;5055169;28;19920;-70
2023/01/11 12:44:18;;;;;;;;;;;22.80;99.90;;;;;;5052317;28;19982;-71
2023/01/11 12:46:53;;;;;;;;;;;22.80;99.90;;;;;;5052979;28;20369;-69
2023/01/11 12:49:31;;;;;;;;;;;22.80;99.90;;;;;;5052481;28;19909;-71
2023/01/11 12:52:15;;;;;;;;;;;22.80;99.90;;;;;;5061187;28;20439;-70
2023/01/11 12:55:00;;;;;;;;;;;22.80;99.90;;;;;;5063994;28;20023;-72
2023/01/11 12:58:18;;;;;;;;;;;22.80;99.90;;;;;;5057936;28;19913;-69
2023/01/11 13:00:37;;;;;;;;;;;22.80;99.90;;;;;;5059145;28;19936;-71
2023/01/11 13:03:22;;;;;;;;;;;22.80;99.90;;;;;;5072153;28;19938;-71
2023/01/11 13:06:01;;;;;;;;;;;22.80;99.90;;;;;;5070981;28;20324;-71
2023/01/11 13:08:31;;;;;;;;;;;22.80;99.90;;;;;;5078482;28;19919;-70
2023/01/11 13:11:00;;;;;;;;;;;22.80;99.90;;;;;;5087671;28;19961;-70
2023/01/11 13:13:39;;;;;;;;;;;22.80;99.90;;;;;;5068916;28;20392;-70
2023/01/11 13:16:16;;;;;;;;;;;22.80;99.90;;;;;;5069496;28;19928;-70
2023/01/11 13:18:47;;;;;;;;;;;22.90;99.90;;;;;;5080820;28;19995;-72
2023/01/11 13:21:18;;;;;;;;;;;22.90;99.90;;;;;;5063918;28;20384;-70
2023/01/11 13:23:47;;;;;;;;;;;22.80;99.90;;;;;;5076101;28;20009;-71
2023/01/11 13:26:20;;;;;;;;;;;22.80;99.90;;;;;;5055427;28;19919;-69
2023/01/11 13:28:49;;;;;;;;;;;22.70;99.90;;;;;;5059039;28;20085;-71
2023/01/11 13:31:16;;;;;;;;;;;22.70;99.90;;;;;;5064527;28;19928;-70
2023/01/11 13:33:49;;;;;;;;;;;22.70;99.90;;;;;;5069782;28;20407;-71
2023/01/11 13:36:18;;;;;;;;;;;22.60;99.90;;;;;;5059380;28;20294;-72
2023/01/11 13:38:45;;;;;;;;;;;22.50;99.90;;;;;;5078340;28;19913;-72
2023/01/11 13:41:17;;;;;;;;;;;22.60;99.90;;;;;;5071184;28;20045;-71
2023/01/11 13:43:55;;;;;;;;;;;22.50;99.90;;;;;;5086276;28;19916;-72
2023/01/11 13:46:25;;;;;;;;;;;22.50;99.90;;;;;;5057473;28;19920;-71
2023/01/11 13:48:56;;;;;;;;;;;22.50;99.90;;;;;;5063429;28;19916;-70
2023/01/11 13:51:55;;;;;;;;;;;22.50;99.90;;;;;;5076689;28;19947;-71
2023/01/11 13:54:40;;;;;;;;;;;22.60;99.90;;;;;;5092377;28;20385;-73
2023/01/11 13:57:12;;;;;;;;;;;22.60;99.90;;;;;;5058084;28;19913;-69
2023/01/11 13:59:38;;;;;;;;;;;22.60;99.90;;;;;;5074606;28;19935;-71
2023/01/11 14:02:05;;;;;;;;;;;22.60;99.90;;;;;;5073906;28;19938;-73
2023/01/11 14:04:44;;;;;;;;;;;22.70;99.90;;;;;;5056388;28;19983;-72
2023/01/11 14:07:16;;;;;;;;;;;22.60;99.90;;;;;;5055130;28;19920;-71
2023/01/11 14:09:52;;;;;;;;;;;22.70;99.90;;;;;;5076050;28;19924;-71
2023/01/11 14:12:19;;;;;;;;;;;22.70;99.90;;;;;;5077902;28;19958;-69
2023/01/11 14:14:48;;;;;;;;;;;22.60;99.90;;;;;;5072825;28;19977;-72
2023/01/11 14:17:15;;;;;;;;;;;22.60;99.90;;;;;;5075964;28;20306;-69
2023/01/11 14:19:52;;;;;;;;;;;22.50;99.90;;;;;;5092230;28;19912;-71
2023/01/11 14:22:36;;;;;;;;;;;22.50;99.90;;;;;;5095865;28;19982;-69
2023/01/11 14:25:29;;;;;;;;;;;22.50;99.90;;;;;;5066703;28;20375;-69
2023/01/11 14:28:13;;;;;;;;;;;22.50;99.90;;;;;;5080481;28;19913;-71
2023/01/11 14:30:39;;;;;;;;;;;22.50;99.90;;;;;;5077846;28;20007;-73
2023/01/11 14:33:24;;;;;;;;;;;22.50;99.90;;;;;;5068182;28;19912;-72
2023/01/11 14:36:00;;;;;;;;;;;22.50;99.90;;;;;;5060681;28;19925;-72
2023/01/11 14:38:26;;;;;;;;;;;22.40;99.90;;;;;;5056106;28;19921;-71
2023/01/11 14:41:05;;;;;;;;;;;22.50;99.90;;;;;;5068242;28;19908;-68
2023/01/11 14:43:38;;;;;;;;;;;22.50;99.90;;;;;;5101864;28;19908;-69
2023/01/11 14:46:08;;;;;;;;;;;22.50;99.90;;;;;;5082444;28;19964;-72
2023/01/11 14:48:54;;;;;;;;;;;22.60;99.90;;;;;;5084523;28;20017;-72
2023/01/11 14:51:33;;;;;;;;;;;22.50;99.90;;;;;;5081953;28;19920;-71
2023/01/11 14:54:00;;;;;;;;;;;22.50;99.90;;;;;;5065657;28;19956;-71
2023/01/11 14:56:36;;;;;;;;;;;22.60;99.90;;;;;;5087934;28;19923;-72
2023/01/11 14:59:04;;;;;;;;;;;22.50;99.90;;;;;;5070481;28;20284;-72
2023/01/11 15:01:50;;;;;;;;;;;22.50;99.90;;;;;;5085259;28;19908;-71
2023/01/11 15:04:23;;;;;;;;;;;22.50;99.90;;;;;;5080147;28;19935;-70
2023/01/11 15:06:54;;;;;;;;;;;22.50;99.90;;;;;;5084920;28;19912;-72